Time;durP1;ratioP1;P1;durP2;ratioP2;P2;SDS_P1;SDS_P2;PMS_P1;PMS_P2;Temp;Humidity;BMP_temperature;BMP_pressure;BME280_temperature;BME280_humidity;BME280_pressure;Samples;Min_cycle;Max_cycle;Signal;HPM_P1;HPM_P2
2024/01/10 00:01:55;;;;;;;2.57;2.37;;;19.10;35.00;;;;;;5025566;28;20678;-84
2024/01/10 00:04:21;;;;;;;2.40;2.20;;;19.10;35.10;;;;;;4996309;28;20242;-85
2024/01/10 00:06:46;;;;;;;2.63;2.43;;;19.10;35.10;;;;;;5011993;28;20312;-85
2024/01/10 00:09:12;;;;;;;2.50;2.30;;;19.10;35.10;;;;;;5017124;28;20230;-84
2024/01/10 00:11:37;;;;;;;2.47;2.27;;;19.10;35.10;;;;;;5014886;28;20299;-85
2024/01/10 00:14:03;;;;;;;2.40;2.20;;;19.10;35.00;;;;;;5015979;28;20222;-84
2024/01/10 00:16:29;;;;;;;2.47;2.37;;;19.10;35.00;;;;;;5012745;28;20222;-84
2024/01/10 00:18:55;;;;;;;2.67;2.57;;;19.10;35.00;;;;;;5015898;28;20807;-84
2024/01/10 00:21:20;;;;;;;2.53;2.33;;;19.10;35.00;;;;;;5016043;28;20251;-84
2024/01/10 00:23:46;;;;;;;2.60;2.40;;;19.00;34.90;;;;;;5014191;28;20227;-84
2024/01/10 00:26:11;;;;;;;3.20;3.00;;;19.10;35.00;;;;;;5015890;28;20247;-84
2024/01/10 00:28:37;;;;;;;2.97;2.77;;;19.10;35.00;;;;;;4982788;28;20687;-85
2024/01/10 00:31:03;;;;;;;2.40;2.30;;;19.00;34.90;;;;;;4997823;28;20288;-84
2024/01/10 00:33:28;;;;;;;2.37;2.27;;;19.00;34.90;;;;;;4994847;28;20242;-85
2024/01/10 00:35:54;;;;;;;2.40;2.20;;;19.10;35.00;;;;;;4978949;28;21091;-84
2024/01/10 00:38:19;;;;;;;6.80;2.87;;;19.10;35.00;;;;;;4994776;28;20309;-84
2024/01/10 00:40:45;;;;;;;2.53;2.37;;;19.00;35.00;;;;;;4997902;28;20232;-84
2024/01/10 00:43:10;;;;;;;2.30;2.10;;;19.10;35.00;;;;;;4980024;28;20231;-84
2024/01/10 00:45:36;;;;;;;2.37;2.23;;;19.00;34.90;;;;;;4994361;28;20216;-84
2024/01/10 00:48:01;;;;;;;2.60;2.40;;;19.00;34.90;;;;;;4984038;28;20234;-85
2024/01/10 00:50:27;;;;;;;2.33;2.23;;;19.00;34.90;;;;;;4993507;28;20230;-85
2024/01/10 00:52:53;;;;;;;3.03;2.77;;;19.00;34.90;;;;;;4993262;28;20695;-85
2024/01/10 00:55:18;;;;;;;2.10;2.00;;;19.00;34.90;;;;;;4996465;28;20220;-85
2024/01/10 00:57:44;;;;;;;2.60;2.40;;;19.00;34.90;;;;;;4978739;28;20976;-84
2024/01/10 01:00:10;;;;;;;2.73;2.53;;;19.00;34.90;;;;;;4995220;28;20223;-85
2024/01/10 01:02:39;;;;;;;2.17;2.07;;;19.00;34.90;;;;;;4978678;28;20713;-85
2024/01/10 01:05:06;;;;;;;2.60;2.40;;;19.00;34.90;;;;;;4988643;28;20467;-85
2024/01/10 01:07:32;;;;;;;2.60;2.40;;;19.00;34.90;;;;;;4999351;28;20450;-85
2024/01/10 01:09:57;;;;;;;3.60;2.40;;;19.00;34.90;;;;;;4997096;28;20451;-84
2024/01/10 01:12:23;;;;;;;2.53;2.43;;;19.00;34.90;;;;;;4996498;28;20229;-85
2024/01/10 01:14:49;;;;;;;2.60;2.40;;;19.00;34.90;;;;;;4995801;28;20432;-85
2024/01/10 01:17:14;;;;;;;2.50;2.30;;;19.00;34.90;;;;;;4996573;28;20511;-85
2024/01/10 01:19:40;;;;;;;2.80;2.60;;;19.00;34.90;;;;;;5000364;28;20317;-85
2024/01/10 01:22:05;;;;;;;2.13;1.97;;;19.00;34.90;;;;;;4983408;28;20223;-84
2024/01/10 01:24:31;;;;;;;2.77;2.57;;;19.00;34.90;;;;;;4982581;28;20228;-85
2024/01/10 01:26:56;;;;;;;2.17;2.07;;;19.00;34.90;;;;;;5000946;28;20235;-85
2024/01/10 01:29:22;;;;;;;2.40;2.23;;;19.00;34.90;;;;;;5019509;28;20702;-85
2024/01/10 01:31:48;;;;;;;2.60;2.40;;;19.00;34.90;;;;;;5015738;28;20553;-86
2024/01/10 01:34:13;;;;;;;2.57;2.37;;;19.00;34.90;;;;;;5015355;28;20226;-85
2024/01/10 01:36:39;;;;;;;2.27;2.10;;;19.00;35.20;;;;;;5014446;28;20741;-85
2024/01/10 01:39:05;;;;;;;2.90;2.70;;;19.00;34.90;;;;;;5016402;28;20266;-84
2024/01/10 01:41:31;;;;;;;2.53;2.33;;;19.00;34.90;;;;;;5018341;28;20230;-85
2024/01/10 01:43:56;;;;;;;2.27;2.17;;;19.00;34.80;;;;;;5015311;28;20792;-85
2024/01/10 01:46:22;;;;;;;3.33;3.13;;;19.00;34.80;;;;;;5014721;28;20551;-85
2024/01/10 01:48:49;;;;;;;2.40;2.30;;;19.00;34.90;;;;;;5013843;28;20246;-84
2024/01/10 01:51:16;;;;;;;2.20;2.10;;;19.00;34.80;;;;;;5015719;28;20598;-85
2024/01/10 01:53:44;;;;;;;2.37;2.17;;;19.00;34.80;;;;;;5005507;28;20527;-84
2024/01/10 01:56:10;;;;;;;2.53;2.40;;;19.00;34.90;;;;;;5002959;28;20781;-85
2024/01/10 01:58:37;;;;;;;2.53;2.33;;;19.00;34.90;;;;;;5012382;28;20432;-85
2024/01/10 02:01:04;;;;;;;2.33;2.13;;;19.00;34.80;;;;;;5015325;28;20421;-85
2024/01/10 02:03:31;;;;;;;2.53;2.33;;;19.00;34.80;;;;;;4998278;28;20439;-85
2024/01/10 02:05:57;;;;;;;2.40;2.20;;;19.00;34.80;;;;;;5010662;28;20522;-84
2024/01/10 02:08:23;;;;;;;2.20;2.10;;;19.00;35.60;;;;;;5004968;28;20422;-85
2024/01/10 02:10:49;;;;;;;3.00;2.80;;;19.00;34.80;;;;;;5017416;28;20441;-85
2024/01/10 02:13:15;;;;;;;3.00;2.57;;;19.00;34.80;;;;;;5016232;28;20366;-85
2024/01/10 02:15:41;;;;;;;1.97;1.87;;;19.00;34.80;;;;;;5016695;28;20427;-85
2024/01/10 02:18:06;;;;;;;3.13;2.93;;;19.00;34.90;;;;;;4992205;28;20944;-85
2024/01/10 02:20:33;;;;;;;2.33;2.23;;;19.00;34.90;;;;;;5016246;28;20270;-85
2024/01/10 02:22:58;;;;;;;2.20;2.10;;;19.00;34.80;;;;;;5016079;28;20239;-84
2024/01/10 02:25:24;;;;;;;2.33;2.13;;;19.00;34.80;;;;;;5014471;28;21037;-85
2024/01/10 02:27:49;;;;;;;2.30;2.10;;;19.00;34.80;;;;;;5013914;28;20238;-85
2024/01/10 02:30:15;;;;;;;2.63;2.43;;;19.00;34.80;;;;;;5012240;28;20851;-85
2024/01/10 02:32:40;;;;;;;2.40;2.20;;;19.00;34.80;;;;;;5002011;28;20226;-85
2024/01/10 02:35:07;;;;;;;2.63;2.43;;;19.00;34.80;;;;;;5013904;28;20269;-84
2024/01/10 02:37:33;;;;;;;2.47;2.33;;;19.00;34.80;;;;;;5013918;28;20652;-84
2024/01/10 02:39:59;;;;;;;2.40;2.27;;;19.00;34.80;;;;;;5011529;28;20424;-84
2024/01/10 02:42:24;;;;;;;2.10;2.00;;;19.00;34.80;;;;;;5018311;28;20227;-84
2024/01/10 02:44:50;;;;;;;2.90;2.70;;;19.00;34.80;;;;;;5016608;28;20313;-85
2024/01/10 02:47:15;;;;;;;2.33;2.20;;;19.00;34.70;;;;;;5001212;28;20223;-85
2024/01/10 02:49:41;;;;;;;2.30;2.10;;;19.00;34.70;;;;;;5013823;28;20238;-84
2024/01/10 02:52:06;;;;;;;1.97;1.87;;;18.90;34.60;;;;;;5014935;28;20482;-85
2024/01/10 02:54:32;;;;;;;1.90;1.80;;;19.00;34.80;;;;;;5018211;28;20692;-84
2024/01/10 02:56:57;;;;;;;2.37;2.27;;;18.90;34.70;;;;;;5014602;28;20666;-85
2024/01/10 02:59:23;;;;;;;2.23;2.13;;;19.00;34.80;;;;;;4999156;28;20698;-84
2024/01/10 03:01:48;;;;;;;2.07;1.90;;;19.00;35.60;;;;;;5013834;28;20215;-85
2024/01/10 03:04:14;;;;;;;2.20;2.10;;;19.00;34.70;;;;;;5014719;28;20230;-85
2024/01/10 03:06:39;;;;;;;2.33;2.23;;;18.90;34.60;;;;;;4995946;28;20218;-85
2024/01/10 03:09:05;;;;;;;2.30;2.20;;;18.90;34.70;;;;;;5011908;28;20277;-85
2024/01/10 03:11:35;;;;;;;2.50;2.30;;;19.00;34.80;;;;;;5014990;28;20610;-85
2024/01/10 03:14:06;;;;;;;2.20;2.10;;;18.90;34.70;;;;;;5014359;28;20235;-85
2024/01/10 03:16:32;;;;;;;2.13;2.03;;;18.90;34.60;;;;;;4993832;28;20426;-85
2024/01/10 03:18:57;;;;;;;2.27;2.10;;;18.90;34.70;;;;;;5017166;28;20421;-84
2024/01/10 03:21:24;;;;;;;2.20;2.10;;;18.90;34.60;;;;;;5011352;28;20245;-84
2024/01/10 03:23:51;;;;;;;2.60;2.40;;;18.90;34.60;;;;;;5014023;28;20234;-85
2024/01/10 03:26:17;;;;;;;2.20;2.10;;;18.90;34.60;;;;;;5011762;28;20459;-84
2024/01/10 03:28:43;;;;;;;2.40;2.20;;;18.90;34.70;;;;;;5000589;28;20444;-84
2024/01/10 03:31:11;;;;;;;1.93;1.83;;;18.90;34.60;;;;;;4996225;28;20230;-85
2024/01/10 03:33:36;;;;;;;2.37;2.27;;;18.90;34.60;;;;;;4992075;28;20461;-84
2024/01/10 03:36:02;;;;;;;2.20;2.07;;;18.90;34.60;;;;;;4998723;28;20461;-84
2024/01/10 03:38:28;;;;;;;2.13;2.03;;;18.90;34.70;;;;;;4994661;28;20243;-84
2024/01/10 03:40:53;;;;;;;2.43;2.23;;;18.90;34.60;;;;;;4994868;28;20435;-85
2024/01/10 03:43:19;;;;;;;2.40;2.20;;;18.90;34.60;;;;;;4996333;28;21458;-84
2024/01/10 03:45:44;;;;;;;2.40;2.30;;;18.90;34.60;;;;;;4998357;28;20764;-85
2024/01/10 03:48:10;;;;;;;2.20;2.00;;;18.90;34.60;;;;;;4997765;28;20235;-84
2024/01/10 03:50:35;;;;;;;2.67;2.47;;;18.90;34.60;;;;;;4997162;28;20232;-85
2024/01/10 03:53:01;;;;;;;2.40;2.20;;;18.90;34.60;;;;;;4995329;28;20349;-85
2024/01/10 03:55:27;;;;;;;2.50;2.40;;;18.90;34.60;;;;;;4979445;28;20627;-84
2024/01/10 03:57:52;;;;;;;2.40;2.27;;;18.90;34.60;;;;;;4993819;28;20232;-86
2024/01/10 04:00:18;;;;;;;2.83;1.97;;;18.90;34.60;;;;;;4995733;28;20219;-84
2024/01/10 04:02:43;;;;;;;2.40;2.20;;;18.90;34.60;;;;;;4993840;28;20220;-84
2024/01/10 04:05:11;;;;;;;2.20;2.03;;;18.90;34.50;;;;;;4996569;28;20298;-84
2024/01/10 04:07:37;;;;;;;2.10;2.00;;;18.90;34.60;;;;;;4977385;28;20238;-84
2024/01/10 04:10:03;;;;;;;2.00;1.90;;;18.90;34.50;;;;;;4997348;28;20465;-84
2024/01/10 04:12:29;;;;;;;2.13;2.03;;;18.90;34.50;;;;;;4997642;28;20306;-84
2024/01/10 04:14:54;;;;;;;2.27;2.17;;;18.90;34.50;;;;;;4995285;28;21604;-84
2024/01/10 04:17:20;;;;;;;2.20;2.10;;;18.90;34.50;;;;;;4991122;28;20230;-84
2024/01/10 04:19:45;;;;;;;2.00;1.90;;;18.90;34.50;;;;;;4990781;28;20231;-85
2024/01/10 04:22:11;;;;;;;2.53;2.30;;;18.90;34.40;;;;;;4992906;28;20327;-85
2024/01/10 04:24:36;;;;;;;2.20;2.00;;;18.90;34.40;;;;;;4993884;28;20231;-84
2024/01/10 04:27:02;;;;;;;2.73;2.47;;;18.90;34.50;;;;;;4981680;28;20242;-84
2024/01/10 04:29:27;;;;;;;2.00;1.77;;;18.90;34.50;;;;;;4996435;28;20218;-84
2024/01/10 04:31:53;;;;;;;2.33;2.23;;;18.90;34.40;;;;;;4983524;28;20604;-84
2024/01/10 04:34:19;;;;;;;2.10;2.00;;;18.90;34.30;;;;;;4996263;28;20281;-85
2024/01/10 04:36:44;;;;;;;2.10;2.00;;;18.90;34.30;;;;;;4991881;28;20298;-84
2024/01/10 04:39:10;;;;;;;2.07;1.97;;;18.90;34.40;;;;;;4977999;28;20220;-84
2024/01/10 04:41:36;;;;;;;2.43;2.23;;;18.90;34.40;;;;;;4994505;28;20223;-84
2024/01/10 04:44:01;;;;;;;2.30;2.20;;;18.90;34.40;;;;;;4995379;28;20244;-86
2024/01/10 04:46:27;;;;;;;1.93;1.83;;;18.90;34.30;;;;;;4994898;28;20932;-84
2024/01/10 04:48:52;;;;;;;2.37;2.20;;;18.90;34.30;;;;;;4990075;28;20667;-84
2024/01/10 04:51:18;;;;;;;2.10;1.90;;;18.90;34.30;;;;;;4996629;28;20614;-84
2024/01/10 04:53:43;;;;;;;1.87;1.77;;;18.90;34.30;;;;;;4994440;28;21007;-84
2024/01/10 04:56:09;;;;;;;2.20;2.00;;;18.90;34.30;;;;;;4995086;28;20219;-84
2024/01/10 04:58:36;;;;;;;1.90;1.80;;;18.90;34.30;;;;;;4997074;28;20383;-84
2024/01/10 05:01:02;;;;;;;2.00;1.90;;;18.90;34.20;;;;;;4976194;28;20339;-84
2024/01/10 05:03:27;;;;;;;2.00;1.90;;;18.90;34.30;;;;;;4985183;28;20443;-84
2024/01/10 05:05:53;;;;;;;1.80;1.70;;;18.90;34.30;;;;;;5000045;28;20267;-84
2024/01/10 05:08:20;;;;;;;2.00;1.90;;;18.90;34.20;;;;;;4992058;28;20262;-83
2024/01/10 05:10:46;;;;;;;2.47;2.27;;;18.90;34.20;;;;;;4983476;28;20227;-85
2024/01/10 05:13:12;;;;;;;1.90;1.80;;;18.90;34.20;;;;;;4979744;28;20427;-85
2024/01/10 05:15:38;;;;;;;2.23;1.83;;;19.00;34.30;;;;;;4996620;28;20595;-84
2024/01/10 05:18:04;;;;;;;2.17;2.07;;;19.00;34.30;;;;;;4997087;28;20569;-84
2024/01/10 05:20:29;;;;;;;2.20;2.10;;;19.00;34.20;;;;;;4994636;28;20769;-84
2024/01/10 05:22:58;;;;;;;2.50;2.10;;;19.00;34.10;;;;;;4991429;28;20223;-84
2024/01/10 05:25:24;;;;;;;2.30;2.10;;;19.00;34.10;;;;;;4994910;28;20220;-83
2024/01/10 05:27:50;;;;;;;2.17;2.07;;;19.00;34.00;;;;;;4997542;28;20484;-84
2024/01/10 05:30:16;;;;;;;2.10;2.00;;;19.00;34.10;;;;;;4999277;28;20424;-84
2024/01/10 05:32:43;;;;;;;2.87;2.57;;;19.00;34.00;;;;;;4993582;28;20712;-84
2024/01/10 05:35:10;;;;;;;2.00;1.90;;;19.00;34.00;;;;;;4981356;28;20646;-83
2024/01/10 05:37:36;;;;;;;2.80;2.60;;;19.00;34.00;;;;;;4997149;28;20435;-83
2024/01/10 05:40:02;;;;;;;2.97;2.30;;;19.00;34.00;;;;;;4998198;28;20461;-86
2024/01/10 05:42:27;;;;;;;2.07;1.97;;;19.00;34.00;;;;;;4998393;28;20228;-83
2024/01/10 05:44:53;;;;;;;2.10;2.00;;;19.00;34.00;;;;;;4996510;28;20501;-84
2024/01/10 05:47:18;;;;;;;2.20;2.10;;;19.00;34.00;;;;;;5001350;28;20223;-83
2024/01/10 05:49:44;;;;;;;3.10;2.27;;;19.00;34.00;;;;;;4996298;28;20326;-83
2024/01/10 05:52:09;;;;;;;2.07;1.97;;;19.00;34.10;;;;;;4978007;28;20227;-83
2024/01/10 05:54:35;;;;;;;2.07;1.97;;;19.00;34.00;;;;;;4991827;28;20232;-83
2024/01/10 05:57:02;;;;;;;4.63;2.27;;;19.00;34.00;;;;;;4996739;28;20232;-83
2024/01/10 05:59:27;;;;;;;2.30;2.20;;;19.00;34.00;;;;;;4978685;28;20234;-82
2024/01/10 06:01:53;;;;;;;2.60;2.30;;;19.00;34.00;;;;;;4979916;28;20780;-82
2024/01/10 06:04:18;;;;;;;2.33;2.23;;;19.00;34.00;;;;;;4997090;28;20235;-83
2024/01/10 06:06:45;;;;;;;2.27;2.10;;;19.00;34.10;;;;;;4977983;28;20223;-84
2024/01/10 06:09:11;;;;;;;1.97;1.87;;;19.00;34.00;;;;;;5005507;28;20219;-82
2024/01/10 06:11:41;;;;;;;2.43;2.10;;;19.00;34.00;;;;;;5000868;28;20456;-84
2024/01/10 06:14:07;;;;;;;2.10;2.00;;;19.10;34.20;;;;;;4998278;28;20891;-85
2024/01/10 06:16:33;;;;;;;1.93;1.83;;;19.00;34.00;;;;;;5003254;28;20487;-86
2024/01/10 06:18:58;;;;;;;1.90;1.80;;;19.00;34.10;;;;;;5004418;28;20227;-86
2024/01/10 06:21:24;;;;;;;2.07;1.97;;;19.00;34.10;;;;;;5004382;28;20223;-86
2024/01/10 06:23:49;;;;;;;2.30;2.20;;;19.00;34.10;;;;;;4996777;28;20263;-85
2024/01/10 06:26:15;;;;;;;3.37;2.20;;;19.00;34.10;;;;;;4992700;28;20314;-86
2024/01/10 06:28:41;;;;;;;3.17;2.03;;;19.00;34.10;;;;;;5005390;28;20235;-85
2024/01/10 06:31:06;;;;;;;5.67;3.67;;;19.00;34.10;;;;;;5001061;28;21889;-85
2024/01/10 06:33:32;;;;;;;3.90;2.57;;;19.10;34.20;;;;;;5001100;28;20527;-86
2024/01/10 06:35:58;;;;;;;3.10;2.10;;;19.10;34.20;;;;;;5000447;28;20219;-85
2024/01/10 06:38:23;;;;;;;3.27;2.17;;;19.10;34.20;;;;;;5001505;28;20216;-85
2024/01/10 06:40:50;;;;;;;4.00;2.43;;;19.10;34.20;;;;;;5001127;28;20478;-85
2024/01/10 06:43:16;;;;;;;2.97;2.60;;;19.10;34.30;;;;;;5001927;28;20706;-86
2024/01/10 06:45:42;;;;;;;2.50;2.30;;;19.10;34.30;;;;;;4994946;28;20431;-85
2024/01/10 06:48:08;;;;;;;3.10;2.50;;;19.10;34.30;;;;;;4987740;28;20234;-85
2024/01/10 06:50:34;;;;;;;3.03;2.60;;;19.10;34.30;;;;;;5001417;28;20467;-86
2024/01/10 06:52:59;;;;;;;3.00;2.43;;;19.10;34.40;;;;;;4999974;28;20431;-85
2024/01/10 06:55:26;;;;;;;3.07;2.83;;;19.10;34.40;;;;;;5000192;28;20578;-86
2024/01/10 06:57:55;;;;;;;2.33;2.13;;;19.10;34.40;;;;;;5002356;28;20261;-86
2024/01/10 07:00:22;;;;;;;2.30;2.10;;;19.10;34.40;;;;;;4998441;28;21452;-86
2024/01/10 07:02:49;;;;;;;2.53;2.33;;;19.10;34.40;;;;;;4999775;28;20436;-86
2024/01/10 07:05:15;;;;;;;3.87;2.47;;;19.10;34.40;;;;;;5000440;28;20950;-86
2024/01/10 07:07:41;;;;;;;4.30;2.13;;;19.10;34.40;;;;;;4999856;28;20462;-86
2024/01/10 07:10:07;;;;;;;2.40;2.20;;;19.10;34.50;;;;;;4997261;28;20290;-85
2024/01/10 07:12:36;;;;;;;3.57;3.27;;;19.10;34.40;;;;;;5003801;28;20421;-86
2024/01/10 07:15:04;;;;;;;3.00;2.37;;;19.10;34.40;;;;;;5000818;28;20302;-86
2024/01/10 07:17:30;;;;;;;3.03;2.70;;;19.10;34.40;;;;;;4982158;28;20523;-87
2024/01/10 07:19:58;;;;;;;2.50;2.30;;;19.10;34.40;;;;;;4982500;28;20552;-86
2024/01/10 07:22:24;;;;;;;2.43;2.23;;;19.10;34.40;;;;;;4998108;28;20264;-85
2024/01/10 07:24:50;;;;;;;2.27;2.17;;;19.10;34.30;;;;;;4997868;28;21078;-86
2024/01/10 07:27:15;;;;;;;2.83;2.63;;;19.10;34.40;;;;;;5004872;28;20267;-86
2024/01/10 07:29:41;;;;;;;4.57;3.43;;;19.10;34.30;;;;;;5006532;28;20231;-86
2024/01/10 07:32:11;;;;;;;2.33;2.13;;;19.10;34.40;;;;;;5017973;28;20301;-86
2024/01/10 07:34:39;;;;;;;2.50;2.30;;;19.10;34.40;;;;;;5016306;28;20235;-86
2024/01/10 07:37:05;;;;;;;2.00;1.90;;;19.10;34.40;;;;;;5018622;28;20460;-86
2024/01/10 07:39:31;;;;;;;2.33;2.23;;;19.10;34.30;;;;;;5015549;28;20853;-86
2024/01/10 07:41:57;;;;;;;2.50;2.30;;;19.10;34.30;;;;;;5018270;28;20444;-86
2024/01/10 07:44:24;;;;;;;2.63;2.43;;;19.10;34.40;;;;;;5018874;28;20238;-86
2024/01/10 07:46:53;;;;;;;2.63;2.50;;;19.10;34.30;;;;;;5016464;28;20223;-85
2024/01/10 07:49:21;;;;;;;2.53;2.33;;;19.10;34.40;;;;;;4999194;28;20581;-86
2024/01/10 07:51:47;;;;;;;2.40;2.20;;;19.10;34.30;;;;;;5003837;28;21165;-87
2024/01/10 07:54:13;;;;;;;2.47;2.30;;;19.10;34.30;;;;;;5019120;28;20478;-86
2024/01/10 07:56:39;;;;;;;3.13;2.63;;;19.10;34.30;;;;;;5014464;28;20304;-86
2024/01/10 07:59:05;;;;;;;2.67;2.47;;;19.10;34.30;;;;;;5019586;28;20975;-86
2024/01/10 08:01:30;;;;;;;2.30;2.10;;;19.10;34.30;;;;;;5012175;28;20455;-85
2024/01/10 08:03:56;;;;;;;2.30;2.20;;;19.10;34.30;;;;;;5015542;28;20773;-86
2024/01/10 08:06:22;;;;;;;2.80;2.60;;;19.10;34.30;;;;;;5017344;28;20682;-86
2024/01/10 08:08:48;;;;;;;2.83;2.63;;;19.10;34.30;;;;;;5015948;28;20234;-87
2024/01/10 08:11:13;;;;;;;2.13;2.03;;;19.10;34.30;;;;;;5016983;28;20445;-87
2024/01/10 08:13:39;;;;;;;2.47;2.27;;;19.10;34.30;;;;;;5016769;28;20672;-87
2024/01/10 08:16:05;;;;;;;2.17;2.07;;;19.10;34.30;;;;;;5017149;28;20561;-87
2024/01/10 08:18:30;;;;;;;2.93;2.40;;;19.10;34.40;;;;;;4996881;28;20654;-87
2024/01/10 08:20:56;;;;;;;2.90;2.70;;;19.10;34.30;;;;;;4997367;28;20638;-87
2024/01/10 08:23:21;;;;;;;2.37;2.03;;;19.10;34.30;;;;;;5014255;28;20227;-87
2024/01/10 08:25:47;;;;;;;2.60;2.40;;;19.10;34.30;;;;;;4999844;28;20289;-87
2024/01/10 08:28:13;;;;;;;2.20;2.10;;;19.10;34.30;;;;;;5015580;28;20234;-87
2024/01/10 08:30:39;;;;;;;2.20;2.10;;;19.10;34.30;;;;;;5001634;28;20211;-87
2024/01/10 08:33:04;;;;;;;2.77;2.57;;;19.10;34.30;;;;;;5020327;28;20431;-87
2024/01/10 08:35:30;;;;;;;2.70;2.50;;;19.10;34.30;;;;;;5000557;28;20687;-87
2024/01/10 08:37:55;;;;;;;2.60;2.40;;;19.10;34.30;;;;;;5019513;28;20686;-88
2024/01/10 08:40:25;;;;;;;2.57;2.37;;;19.10;34.30;;;;;;5021310;28;20319;-88
2024/01/10 08:42:51;;;;;;;2.70;2.50;;;19.10;34.40;;;;;;5001707;28;20250;-87
2024/01/10 08:45:17;;;;;;;2.97;2.77;;;19.10;34.30;;;;;;5001330;28;20473;-87
2024/01/10 08:47:43;;;;;;;4.40;2.30;;;19.10;34.30;;;;;;5000537;28;20463;-88
2024/01/10 08:50:10;;;;;;;2.23;2.13;;;19.10;34.30;;;;;;5019048;28;20230;-87
2024/01/10 08:52:38;;;;;;;3.00;2.80;;;19.10;34.20;;;;;;5018915;28;20766;-87
2024/01/10 08:55:05;;;;;;;2.33;2.23;;;19.10;34.20;;;;;;5017187;28;20431;-88
2024/01/10 08:57:31;;;;;;;2.07;1.97;;;19.10;34.30;;;;;;5001653;28;20422;-88
2024/01/10 08:59:57;;;;;;;2.60;2.40;;;19.10;34.20;;;;;;5016205;28;20419;-87
2024/01/10 09:02:23;;;;;;;2.80;2.60;;;19.10;34.30;;;;;;5017518;28;20212;-87
2024/01/10 09:04:50;;;;;;;2.33;2.23;;;19.10;34.30;;;;;;5004968;28;20258;-88
2024/01/10 09:07:17;;;;;;;2.30;2.20;;;19.10;34.30;;;;;;5003484;28;20941;-88
2024/01/10 09:09:43;;;;;;;2.23;2.10;;;19.10;34.20;;;;;;5017223;28;20474;-89
2024/01/10 09:12:09;;;;;;;2.77;2.57;;;19.10;34.20;;;;;;5018310;28;20910;-87
2024/01/10 09:14:34;;;;;;;3.10;2.90;;;19.10;34.20;;;;;;5018748;28;20659;-89
2024/01/10 09:17:02;;;;;;;2.83;2.73;;;19.10;34.20;;;;;;5016690;28;20924;-87
2024/01/10 09:19:29;;;;;;;2.90;2.70;;;19.10;34.20;;;;;;5017799;28;20284;-87
2024/01/10 09:21:55;;;;;;;2.63;2.43;;;19.10;34.20;;;;;;5020193;28;20451;-88
2024/01/10 09:24:21;;;;;;;2.73;2.43;;;19.10;34.20;;;;;;5026369;28;20595;-88
2024/01/10 09:26:47;;;;;;;2.60;2.50;;;19.10;34.20;;;;;;5010686;28;20448;-88
2024/01/10 09:29:12;;;;;;;2.60;2.40;;;19.10;34.20;;;;;;5029167;28;20211;-88
2024/01/10 09:31:38;;;;;;;2.60;2.40;;;19.10;34.20;;;;;;5029588;28;20245;-88
2024/01/10 09:34:03;;;;;;;2.20;2.10;;;19.10;34.20;;;;;;5012493;28;20210;-87
2024/01/10 09:36:29;;;;;;;2.63;2.43;;;19.10;34.20;;;;;;5010051;28;20210;-87
2024/01/10 09:38:54;;;;;;;2.53;2.43;;;19.10;34.10;;;;;;5029024;28;20674;-88
2024/01/10 09:41:20;;;;;;;3.23;2.53;;;19.10;34.10;;;;;;5031632;28;20594;-88
2024/01/10 09:43:46;;;;;;;2.77;2.57;;;19.10;34.20;;;;;;5030713;28;20717;-88
2024/01/10 09:46:12;;;;;;;2.30;2.20;;;19.10;34.10;;;;;;5030905;28;20231;-88
2024/01/10 09:48:38;;;;;;;2.60;2.40;;;19.10;34.10;;;;;;5030397;28;20210;-88
2024/01/10 09:51:04;;;;;;;2.50;2.30;;;19.10;34.10;;;;;;5031617;28;20446;-88
2024/01/10 09:53:35;;;;;;;2.53;2.43;;;19.10;34.30;;;;;;5030992;28;20318;-89
2024/01/10 09:56:04;;;;;;;2.40;2.20;;;19.10;34.10;;;;;;5030659;28;20206;-89
2024/01/10 09:58:30;;;;;;;2.70;2.50;;;19.10;34.10;;;;;;5029712;28;20422;-89
2024/01/10 10:00:56;;;;;;;2.93;2.63;;;19.10;34.10;;;;;;5010992;28;20430;-90
2024/01/10 10:03:21;;;;;;;2.70;2.50;;;19.10;34.10;;;;;;5010259;28;20966;-89
2024/01/10 10:05:47;;;;;;;2.80;2.60;;;19.10;34.10;;;;;;5028125;28;20306;-87
2024/01/10 10:08:15;;;;;;;2.43;2.33;;;19.10;34.10;;;;;;5026808;28;20238;-87
2024/01/10 10:10:44;;;;;;;2.30;2.20;;;19.10;34.10;;;;;;5021171;28;20214;-87
2024/01/10 10:13:23;;;;;;;2.53;2.33;;;19.10;34.00;;;;;;5025279;28;20436;-87
2024/01/10 10:16:03;;;;;;;2.70;2.50;;;19.10;34.10;;;;;;5024878;28;20449;-87
2024/01/10 10:18:32;;;;;;;2.77;2.57;;;19.10;34.10;;;;;;5023350;28;20459;-87
2024/01/10 10:21:11;;;;;;;2.63;2.43;;;19.10;34.10;;;;;;5006496;28;20975;-87
2024/01/10 10:23:41;;;;;;;2.97;2.77;;;19.10;34.80;;;;;;5004832;28;21040;-87
2024/01/10 10:26:19;;;;;;;2.90;2.70;;;19.10;34.10;;;;;;5024377;28;20509;-87
2024/01/10 10:28:45;;;;;;;2.47;2.33;;;19.10;34.10;;;;;;5022845;28;20438;-87
2024/01/10 10:31:11;;;;;;;2.80;2.47;;;19.10;34.10;;;;;;5005540;28;20510;-87
2024/01/10 10:33:37;;;;;;;2.50;2.30;;;19.10;34.10;;;;;;5020155;28;20214;-87
2024/01/10 10:36:03;;;;;;;2.40;2.30;;;19.10;34.10;;;;;;5005754;28;20436;-87
2024/01/10 10:38:29;;;;;;;2.60;2.40;;;19.10;34.10;;;;;;5002235;28;20314;-86
2024/01/10 10:40:55;;;;;;;2.57;2.37;;;19.10;34.10;;;;;;5019428;28;20211;-87
2024/01/10 10:43:21;;;;;;;2.50;2.40;;;19.10;34.10;;;;;;5019930;28;20227;-87
2024/01/10 10:45:48;;;;;;;2.83;2.53;;;19.10;34.10;;;;;;5019101;28;20445;-86
2024/01/10 10:48:18;;;;;;;2.60;2.40;;;19.10;34.10;;;;;;5019017;28;21485;-86
2024/01/10 10:50:56;;;;;;;2.57;2.47;;;19.10;34.00;;;;;;5018569;28;21001;-86
2024/01/10 10:53:25;;;;;;;2.97;2.77;;;19.10;34.10;;;;;;5014110;28;20432;-87
2024/01/10 10:55:51;;;;;;;3.10;2.90;;;19.10;34.00;;;;;;5022659;28;20460;-85
2024/01/10 10:58:17;;;;;;;2.67;2.47;;;19.10;34.00;;;;;;5020324;28;20542;-86
2024/01/10 11:00:44;;;;;;;3.00;2.80;;;19.10;34.10;;;;;;5021556;28;20909;-86
2024/01/10 11:03:13;;;;;;;2.40;2.20;;;19.10;34.00;;;;;;5003756;28;20231;-85
2024/01/10 11:05:41;;;;;;;2.90;2.70;;;19.10;34.00;;;;;;5003012;28;20431;-88
2024/01/10 11:08:10;;;;;;;2.73;2.53;;;19.10;34.00;;;;;;5018233;28;20548;-86
2024/01/10 11:10:40;;;;;;;2.80;2.60;;;19.10;34.00;;;;;;5003752;28;20470;-90
2024/01/10 11:13:28;;;;;;;3.37;3.17;;;19.10;34.00;;;;;;5019397;28;20426;-86
2024/01/10 11:16:14;;;;;;;2.83;2.63;;;19.10;34.70;;;;;;5018023;28;20470;-87
2024/01/10 11:19:07;;;;;;;2.70;2.60;;;19.10;34.00;;;;;;5015681;28;20937;-86
2024/01/10 11:21:59;;;;;;;3.20;3.00;;;19.20;34.10;;;;;;5015303;28;20461;-86
2024/01/10 11:24:26;;;;;;;3.37;3.10;;;19.10;34.00;;;;;;4994793;28;20508;-87
2024/01/10 11:27:15;;;;;;;3.13;2.93;;;19.10;34.00;;;;;;5006722;28;20449;-87
2024/01/10 11:29:42;;;;;;;2.97;2.77;;;19.10;34.00;;;;;;5017390;28;20476;-87
2024/01/10 11:32:14;;;;;;;3.27;3.07;;;19.10;34.00;;;;;;5005854;28;20977;-87
2024/01/10 11:34:50;;;;;;;3.50;3.30;;;19.10;34.00;;;;;;5018980;28;20430;-86
2024/01/10 11:37:15;;;;;;;2.80;2.60;;;19.10;34.00;;;;;;5003369;28;20964;-86
2024/01/10 11:39:43;;;;;;;3.30;3.10;;;19.10;34.00;;;;;;5019797;28;20455;-87
2024/01/10 11:42:09;;;;;;;3.17;2.97;;;19.10;34.00;;;;;;5016941;28;20293;-87
2024/01/10 11:44:46;;;;;;;2.97;2.73;;;19.10;33.90;;;;;;5011974;28;20447;-87
2024/01/10 11:47:14;;;;;;;3.10;2.90;;;19.10;34.00;;;;;;5018517;28;20220;-86
2024/01/10 11:49:40;;;;;;;3.20;2.93;;;19.10;34.00;;;;;;5003386;28;20541;-87
2024/01/10 11:52:06;;;;;;;3.37;3.17;;;19.10;34.00;;;;;;5018833;28;20526;-87
2024/01/10 11:54:40;;;;;;;2.83;2.60;;;19.10;34.00;;;;;;5019016;28;20362;-87
2024/01/10 11:57:26;;;;;;;3.07;2.87;;;19.10;34.00;;;;;;5016899;28;20316;-86
2024/01/10 11:59:54;;;;;;;2.97;2.77;;;19.10;34.00;;;;;;5018402;28;20455;-87
2024/01/10 12:02:22;;;;;;;2.80;2.60;;;19.10;34.00;;;;;;5017704;28;20491;-87
2024/01/10 12:04:48;;;;;;;3.20;3.00;;;19.10;34.10;;;;;;5016945;28;20479;-87
2024/01/10 12:07:15;;;;;;;3.33;3.13;;;19.10;34.00;;;;;;5019453;28;21005;-87
2024/01/10 12:09:41;;;;;;;2.70;2.50;;;19.10;34.10;;;;;;5018119;28;20974;-87
2024/01/10 12:12:07;;;;;;;3.20;3.00;;;19.10;34.10;;;;;;5012351;28;20430;-86
2024/01/10 12:14:34;;;;;;;3.10;2.90;;;19.10;34.10;;;;;;5003879;28;20468;-87
2024/01/10 12:17:00;;;;;;;3.07;2.87;;;19.10;34.10;;;;;;5020441;28;20210;-87
2024/01/10 12:19:26;;;;;;;3.03;2.83;;;19.10;34.10;;;;;;5017263;28;20512;-87
2024/01/10 12:21:52;;;;;;;2.90;2.60;;;19.10;34.50;;;;;;5018421;28;20795;-87
2024/01/10 12:24:18;;;;;;;3.07;2.87;;;19.10;34.10;;;;;;5015562;28;20292;-87
2024/01/10 12:26:45;;;;;;;3.47;3.27;;;19.10;34.10;;;;;;5018683;28;20452;-87
2024/01/10 12:29:11;;;;;;;3.57;3.37;;;19.10;34.10;;;;;;5016715;28;20415;-87
2024/01/10 12:31:37;;;;;;;3.10;2.80;;;19.10;34.10;;;;;;5000685;28;20567;-86
2024/01/10 12:34:03;;;;;;;3.10;2.90;;;19.20;34.20;;;;;;5015344;28;20223;-87
2024/01/10 12:36:28;;;;;;;2.70;2.50;;;19.10;34.20;;;;;;5013783;28;20455;-87
2024/01/10 12:38:54;;;;;;;3.80;3.47;;;19.20;34.30;;;;;;5000672;28;20237;-87
2024/01/10 12:41:20;;;;;;;3.20;3.00;;;19.20;34.20;;;;;;5015987;28;20215;-87
2024/01/10 12:43:52;;;;;;;3.00;2.77;;;19.20;34.20;;;;;;4999786;28;20620;-87
2024/01/10 12:46:17;;;;;;;4.33;3.30;;;19.20;34.30;;;;;;5014617;28;20461;-88